sensor_id;sensor_type;location;lat;lon;timestamp;pressure;altitude;pressure_sealevel;temperature;humidity
42633;BME280;28261;53.304;-6.284;2023-03-23T00:00:27;98271.84;;;7.15;81.10
42633;BME280;28261;53.304;-6.284;2023-03-23T00:02:31;98273.22;;;7.19;80.55
42633;BME280;28261;53.304;-6.284;2023-03-23T00:04:36;98277.06;;;7.25;80.52
42633;BME280;28261;53.304;-6.284;2023-03-23T00:06:38;98275.81;;;7.29;80.25
42633;BME280;28261;53.304;-6.284;2023-03-23T00:08:41;98274.56;;;7.33;80.29
42633;BME280;28261;53.304;-6.284;2023-03-23T00:10:48;98262.75;;;7.37;79.86
42633;BME280;28261;53.304;-6.284;2023-03-23T00:12:50;98278.13;;;7.42;80.09
42633;BME280;28261;53.304;-6.284;2023-03-23T00:14:54;98270.91;;;7.44;80.14
42633;BME280;28261;53.304;-6.284;2023-03-23T00:16:57;98267.16;;;7.47;79.78
42633;BME280;28261;53.304;-6.284;2023-03-23T00:19:01;98282.84;;;7.48;80.27
42633;BME280;28261;53.304;-6.284;2023-03-23T00:21:04;98279.09;;;7.51;80.19
42633;BME280;28261;53.304;-6.284;2023-03-23T00:23:08;98284.06;;;7.54;80.75
42633;BME280;28261;53.304;-6.284;2023-03-23T00:25:10;98272.41;;;7.56;80.75
42633;BME280;28261;53.304;-6.284;2023-03-23T00:27:13;98273.06;;;7.58;80.71
42633;BME280;28261;53.304;-6.284;2023-03-23T00:29:18;98280.16;;;7.58;80.66
42633;BME280;28261;53.304;-6.284;2023-03-23T00:31:26;98285.44;;;7.58;80.63
42633;BME280;28261;53.304;-6.284;2023-03-23T00:33:33;98281.44;;;7.54;80.45
42633;BME280;28261;53.304;-6.284;2023-03-23T00:35:39;98282.41;;;7.53;80.93
42633;BME280;28261;53.304;-6.284;2023-03-23T00:37:42;98275.47;;;7.52;80.90
42633;BME280;28261;53.304;-6.284;2023-03-23T00:39:45;98275.47;;;7.52;81.11
42633;BME280;28261;53.304;-6.284;2023-03-23T00:41:47;98265.06;;;7.50;81.40
42633;BME280;28261;53.304;-6.284;2023-03-23T00:43:50;98286.84;;;7.52;81.47
42633;BME280;28261;53.304;-6.284;2023-03-23T00:45:52;98268.25;;;7.54;81.11
42633;BME280;28261;53.304;-6.284;2023-03-23T00:47:56;98265.47;;;7.55;80.96
42633;BME280;28261;53.304;-6.284;2023-03-23T00:50:06;98274.91;;;7.58;81.38
42633;BME280;28261;53.304;-6.284;2023-03-23T00:52:09;98271.28;;;7.59;80.97
42633;BME280;28261;53.304;-6.284;2023-03-23T00:54:12;98305.28;;;7.62;80.63
42633;BME280;28261;53.304;-6.284;2023-03-23T00:56:15;98277.94;;;7.63;80.75
42633;BME280;28261;53.304;-6.284;2023-03-23T00:58:17;98284.03;;;7.63;80.91
42633;BME280;28261;53.304;-6.284;2023-03-23T01:00:20;98289.00;;;7.67;80.90
42633;BME280;28261;53.304;-6.284;2023-03-23T01:02:23;98289.00;;;7.67;81.31
42633;BME280;28261;53.304;-6.284;2023-03-23T01:04:28;98284.59;;;7.67;81.57
42633;BME280;28261;53.304;-6.284;2023-03-23T01:06:33;98288.88;;;7.68;81.90
42633;BME280;28261;53.304;-6.284;2023-03-23T01:08:40;98295.94;;;7.68;81.75
42633;BME280;28261;53.304;-6.284;2023-03-23T01:10:46;98287.88;;;7.69;82.20
42633;BME280;28261;53.304;-6.284;2023-03-23T01:12:48;98295.81;;;7.69;83.01
42633;BME280;28261;53.304;-6.284;2023-03-23T01:14:51;98284.28;;;7.70;83.33
42633;BME280;28261;53.304;-6.284;2023-03-23T01:16:53;98293.31;;;7.68;83.98
42633;BME280;28261;53.304;-6.284;2023-03-23T01:18:56;98287.38;;;7.66;84.36
42633;BME280;28261;53.304;-6.284;2023-03-23T01:21:04;98287.53;;;7.64;85.32
42633;BME280;28261;53.304;-6.284;2023-03-23T01:23:08;98284.31;;;7.60;86.55
42633;BME280;28261;53.304;-6.284;2023-03-23T01:25:11;98290.72;;;7.58;86.41
42633;BME280;28261;53.304;-6.284;2023-03-23T01:27:14;98297.81;;;7.57;86.79
42633;BME280;28261;53.304;-6.284;2023-03-23T01:29:16;98294.63;;;7.54;86.87
42633;BME280;28261;53.304;-6.284;2023-03-23T01:31:20;98305.44;;;7.51;87.38
42633;BME280;28261;53.304;-6.284;2023-03-23T01:33:23;98310.31;;;7.45;87.91
42633;BME280;28261;53.304;-6.284;2023-03-23T01:35:25;98304.63;;;7.40;87.65
42633;BME280;28261;53.304;-6.284;2023-03-23T01:37:29;98318.53;;;7.33;88.53
42633;BME280;28261;53.304;-6.284;2023-03-23T01:39:32;98298.31;;;7.23;88.98
42633;BME280;28261;53.304;-6.284;2023-03-23T01:41:34;98309.41;;;7.17;89.02
42633;BME280;28261;53.304;-6.284;2023-03-23T01:43:55;98292.63;;;7.08;89.88
42633;BME280;28261;53.304;-6.284;2023-03-23T01:45:59;98316.88;;;7.02;90.10
42633;BME280;28261;53.304;-6.284;2023-03-23T01:48:07;98297.78;;;7.00;90.77
42633;BME280;28261;53.304;-6.284;2023-03-23T01:50:11;98300.00;;;6.95;91.51
42633;BME280;28261;53.304;-6.284;2023-03-23T01:52:17;98300.94;;;6.94;92.48
42633;BME280;28261;53.304;-6.284;2023-03-23T01:54:25;98295.16;;;6.90;92.63
42633;BME280;28261;53.304;-6.284;2023-03-23T01:56:31;98299.44;;;6.82;93.69
42633;BME280;28261;53.304;-6.284;2023-03-23T01:58:37;98293.22;;;6.73;94.30
42633;BME280;28261;53.304;-6.284;2023-03-23T02:00:39;98288.63;;;6.65;95.68
42633;BME280;28261;53.304;-6.284;2023-03-23T02:02:45;98297.91;;;6.59;96.51
42633;BME280;28261;53.304;-6.284;2023-03-23T02:04:51;98287.09;;;6.53;97.13
42633;BME280;28261;53.304;-6.284;2023-03-23T02:06:58;98286.53;;;6.49;97.40
42633;BME280;28261;53.304;-6.284;2023-03-23T02:09:02;98283.50;;;6.44;98.11
42633;BME280;28261;53.304;-6.284;2023-03-23T02:11:14;98277.00;;;6.38;98.78
42633;BME280;28261;53.304;-6.284;2023-03-23T02:13:16;98285.97;;;6.36;99.53
42633;BME280;28261;53.304;-6.284;2023-03-23T02:15:19;98278.47;;;6.31;99.95
42633;BME280;28261;53.304;-6.284;2023-03-23T02:17:25;98262.81;;;6.30;100.00
42633;BME280;28261;53.304;-6.284;2023-03-23T02:19:46;98257.72;;;6.28;100.00
42633;BME280;28261;53.304;-6.284;2023-03-23T02:22:08;98257.84;;;6.26;100.00
42633;BME280;28261;53.304;-6.284;2023-03-23T02:27:02;98253.41;;;6.27;100.00
42633;BME280;28261;53.304;-6.284;2023-03-23T02:29:29;98257.56;;;6.30;100.00
42633;BME280;28261;53.304;-6.284;2023-03-23T02:34:14;98255.94;;;6.38;100.00
42633;BME280;28261;53.304;-6.284;2023-03-23T02:36:22;98247.75;;;6.41;100.00
42633;BME280;28261;53.304;-6.284;2023-03-23T02:38:30;98248.19;;;6.47;100.00
42633;BME280;28261;53.304;-6.284;2023-03-23T02:40:39;98243.59;;;6.49;100.00
42633;BME280;28261;53.304;-6.284;2023-03-23T02:42:43;98252.19;;;6.51;100.00
42633;BME280;28261;53.304;-6.284;2023-03-23T02:44:50;98255.50;;;6.53;100.00
42633;BME280;28261;53.304;-6.284;2023-03-23T02:46:55;98248.31;;;6.55;100.00
42633;BME280;28261;53.304;-6.284;2023-03-23T02:48:59;98235.69;;;6.58;100.00
42633;BME280;28261;53.304;-6.284;2023-03-23T02:51:04;98233.63;;;6.62;100.00
42633;BME280;28261;53.304;-6.284;2023-03-23T02:53:10;98238.75;;;6.64;100.00
42633;BME280;28261;53.304;-6.284;2023-03-23T02:55:14;98221.03;;;6.66;100.00
42633;BME280;28261;53.304;-6.284;2023-03-23T02:57:17;98235.69;;;6.68;100.00
42633;BME280;28261;53.304;-6.284;2023-03-23T02:59:20;98230.16;;;6.71;100.00
42633;BME280;28261;53.304;-6.284;2023-03-23T03:01:45;98233.47;;;6.73;100.00
42633;BME280;28261;53.304;-6.284;2023-03-23T03:03:50;98235.81;;;6.76;100.00
42633;BME280;28261;53.304;-6.284;2023-03-23T03:06:00;98233.75;;;6.80;100.00
42633;BME280;28261;53.304;-6.284;2023-03-23T03:08:15;98239.56;;;6.84;100.00
42633;BME280;28261;53.304;-6.284;2023-03-23T03:10:24;98234.03;;;6.87;100.00
42633;BME280;28261;53.304;-6.284;2023-03-23T03:12:33;98232.91;;;6.89;100.00
42633;BME280;28261;53.304;-6.284;2023-03-23T03:14:44;98235.41;;;6.91;100.00
42633;BME280;28261;53.304;-6.284;2023-03-23T03:16:52;98230.41;;;6.88;100.00
42633;BME280;28261;53.304;-6.284;2023-03-23T03:18:59;98235.13;;;6.84;100.00
42633;BME280;28261;53.304;-6.284;2023-03-23T03:21:06;98222.53;;;6.78;100.00
42633;BME280;28261;53.304;-6.284;2023-03-23T03:23:14;98223.09;;;6.72;100.00
42633;BME280;28261;53.304;-6.284;2023-03-23T03:25:20;98227.94;;;6.67;100.00
42633;BME280;28261;53.304;-6.284;2023-03-23T03:27:24;98228.22;;;6.64;100.00
42633;BME280;28261;53.304;-6.284;2023-03-23T03:29:41;98218.13;;;6.59;100.00
42633;BME280;28261;53.304;-6.284;2023-03-23T03:31:45;98220.88;;;6.57;100.00
42633;BME280;28261;53.304;-6.284;2023-03-23T03:33:48;98215.75;;;6.56;100.00
42633;BME280;28261;53.304;-6.284;2023-03-23T03:35:53;98208.13;;;6.53;100.00
42633;BME280;28261;53.304;-6.284;2023-03-23T03:37:57;98201.34;;;6.50;100.00
42633;BME280;28261;53.304;-6.284;2023-03-23T03:40:03;98203.28;;;6.48;100.00
42633;BME280;28261;53.304;-6.284;2023-03-23T03:42:11;98191.25;;;6.46;100.00
42633;BME280;28261;53.304;-6.284;2023-03-23T03:44:14;98192.22;;;6.44;100.00
42633;BME280;28261;53.304;-6.284;2023-03-23T03:46:16;98171.16;;;6.44;100.00
42633;BME280;28261;53.304;-6.284;2023-03-23T03:48:19;98169.47;;;6.43;100.00
42633;BME280;28261;53.304;-6.284;2023-03-23T03:50:21;98149.53;;;6.41;100.00
42633;BME280;28261;53.304;-6.284;2023-03-23T03:52:24;98148.72;;;6.40;100.00
42633;BME280;28261;53.304;-6.284;2023-03-23T03:54:28;98145.41;;;6.38;100.00
42633;BME280;28261;53.304;-6.284;2023-03-23T03:56:32;98141.25;;;6.36;100.00
42633;BME280;28261;53.304;-6.284;2023-03-23T03:58:54;98131.69;;;6.35;100.00
42633;BME280;28261;53.304;-6.284;2023-03-23T04:01:09;98125.47;;;6.36;100.00
42633;BME280;28261;53.304;-6.284;2023-03-23T04:03:13;98121.03;;;6.36;100.00
42633;BME280;28261;53.304;-6.284;2023-03-23T04:05:30;98122.53;;;6.39;100.00
42633;BME280;28261;53.304;-6.284;2023-03-23T04:07:34;98114.50;;;6.40;100.00
42633;BME280;28261;53.304;-6.284;2023-03-23T04:09:39;98117.00;;;6.42;100.00
42633;BME280;28261;53.304;-6.284;2023-03-23T04:11:44;98115.88;;;6.44;100.00
42633;BME280;28261;53.304;-6.284;2023-03-23T04:14:07;98121.84;;;6.47;100.00
42633;BME280;28261;53.304;-6.284;2023-03-23T04:16:18;98121.56;;;6.50;100.00
42633;BME280;28261;53.304;-6.284;2023-03-23T04:18:23;98107.28;;;6.52;100.00
42633;BME280;28261;53.304;-6.284;2023-03-23T04:20:26;98128.88;;;6.56;100.00
42633;BME280;28261;53.304;-6.284;2023-03-23T04:22:28;98124.31;;;6.58;100.00
42633;BME280;28261;53.304;-6.284;2023-03-23T04:24:33;98115.31;;;6.60;100.00
42633;BME280;28261;53.304;-6.284;2023-03-23T04:26:39;98109.91;;;6.62;100.00
42633;BME280;28261;53.304;-6.284;2023-03-23T04:28:54;98122.78;;;6.65;100.00
42633;BME280;28261;53.304;-6.284;2023-03-23T04:31:08;98115.44;;;6.69;100.00
42633;BME280;28261;53.304;-6.284;2023-03-23T04:33:18;98115.13;;;6.72;100.00
42633;BME280;28261;53.304;-6.284;2023-03-23T04:35:23;98106.28;;;6.73;100.00
42633;BME280;28261;53.304;-6.284;2023-03-23T04:37:39;98114.84;;;6.75;100.00
42633;BME280;28261;53.304;-6.284;2023-03-23T04:39:42;98112.06;;;6.76;100.00
42633;BME280;28261;53.304;-6.284;2023-03-23T04:41:48;98114.59;;;6.78;100.00
42633;BME280;28261;53.304;-6.284;2023-03-23T04:44:00;98123.00;;;6.82;100.00
42633;BME280;28261;53.304;-6.284;2023-03-23T04:46:13;98126.34;;;6.84;100.00
42633;BME280;28261;53.304;-6.284;2023-03-23T04:48:20;98117.44;;;6.85;100.00
42633;BME280;28261;53.304;-6.284;2023-03-23T04:50:34;98126.88;;;6.87;100.00
42633;BME280;28261;53.304;-6.284;2023-03-23T04:52:47;98123.97;;;6.90;100.00
42633;BME280;28261;53.304;-6.284;2023-03-23T04:54:52;98130.88;;;6.91;100.00
42633;BME280;28261;53.304;-6.284;2023-03-23T04:56:56;98133.38;;;6.93;100.00
42633;BME280;28261;53.304;-6.284;2023-03-23T04:59:02;98121.19;;;6.92;100.00
42633;BME280;28261;53.304;-6.284;2023-03-23T05:01:23;98129.75;;;6.94;100.00
42633;BME280;28261;53.304;-6.284;2023-03-23T05:03:41;98127.13;;;6.94;100.00
42633;BME280;28261;53.304;-6.284;2023-03-23T05:05:46;98122.69;;;6.94;99.93
42633;BME280;28261;53.304;-6.284;2023-03-23T05:07:54;98120.88;;;6.95;99.69
42633;BME280;28261;53.304;-6.284;2023-03-23T05:09:58;98124.50;;;6.94;100.00
42633;BME280;28261;53.304;-6.284;2023-03-23T05:12:05;98120.06;;;6.94;99.75
42633;BME280;28261;53.304;-6.284;2023-03-23T05:14:14;98122.84;;;6.93;99.57
42633;BME280;28261;53.304;-6.284;2023-03-23T05:16:22;98128.13;;;6.93;99.77
42633;BME280;28261;53.304;-6.284;2023-03-23T05:18:24;98122.84;;;6.93;99.86
42633;BME280;28261;53.304;-6.284;2023-03-23T05:20:27;98112.31;;;6.93;99.64
42633;BME280;28261;53.304;-6.284;2023-03-23T05:22:38;98122.84;;;6.93;99.45
42633;BME280;28261;53.304;-6.284;2023-03-23T05:24:41;98120.22;;;6.93;99.43
42633;BME280;28261;53.304;-6.284;2023-03-23T05:26:45;98114.09;;;6.92;99.43
42633;BME280;28261;53.304;-6.284;2023-03-23T05:28:54;98118.56;;;6.92;99.10
42633;BME280;28261;53.304;-6.284;2023-03-23T05:31:15;98123.66;;;6.93;99.17
42633;BME280;28261;53.304;-6.284;2023-03-23T05:33:17;98117.59;;;6.93;98.49
42633;BME280;28261;53.304;-6.284;2023-03-23T05:35:23;98123.66;;;6.93;99.04
42633;BME280;28261;53.304;-6.284;2023-03-23T05:37:28;98128.13;;;6.93;98.85
42633;BME280;28261;53.304;-6.284;2023-03-23T05:39:41;98123.81;;;6.92;98.95
42633;BME280;28261;53.304;-6.284;2023-03-23T05:42:06;98130.88;;;6.91;99.32
42633;BME280;28261;53.304;-6.284;2023-03-23T05:44:35;98118.69;;;6.90;99.45
42633;BME280;28261;53.304;-6.284;2023-03-23T05:46:39;98135.31;;;6.91;99.62
42633;BME280;28261;53.304;-6.284;2023-03-23T05:48:42;98142.25;;;6.92;100.00
42633;BME280;28261;53.304;-6.284;2023-03-23T05:50:49;98146.56;;;6.93;100.00
42633;BME280;28261;53.304;-6.284;2023-03-23T05:52:55;98137.66;;;6.94;100.00
42633;BME280;28261;53.304;-6.284;2023-03-23T05:54:59;98140.28;;;6.94;100.00
42633;BME280;28261;53.304;-6.284;2023-03-23T05:57:02;98132.38;;;6.94;100.00
42633;BME280;28261;53.304;-6.284;2023-03-23T05:59:15;98127.81;;;6.96;100.00
42633;BME280;28261;53.304;-6.284;2023-03-23T06:01:20;98130.47;;;6.96;99.79
42633;BME280;28261;53.304;-6.284;2023-03-23T06:03:26;98124.22;;;6.97;99.42
42633;BME280;28261;53.304;-6.284;2023-03-23T06:06:01;98126.56;;;7.00;98.91
42633;BME280;28261;53.304;-6.284;2023-03-23T06:08:15;98135.13;;;7.02;98.24
42633;BME280;28261;53.304;-6.284;2023-03-23T06:10:19;98123.63;;;7.03;98.00
42633;BME280;28261;53.304;-6.284;2023-03-23T06:12:28;98117.09;;;7.07;97.26
42633;BME280;28261;53.304;-6.284;2023-03-23T06:14:36;98115.28;;;7.08;96.84
42633;BME280;28261;53.304;-6.284;2023-03-23T06:16:40;98116.13;;;7.08;96.86
42633;BME280;28261;53.304;-6.284;2023-03-23T06:18:48;98113.34;;;7.10;96.71
42633;BME280;28261;53.304;-6.284;2023-03-23T06:21:00;98112.53;;;7.09;96.67
42633;BME280;28261;53.304;-6.284;2023-03-23T06:23:26;98109.03;;;7.09;96.43
42633;BME280;28261;53.304;-6.284;2023-03-23T06:25:29;98102.81;;;7.10;96.58
42633;BME280;28261;53.304;-6.284;2023-03-23T06:27:32;98105.59;;;7.08;96.46
42633;BME280;28261;53.304;-6.284;2023-03-23T06:29:38;98114.16;;;7.10;96.64
42633;BME280;28261;53.304;-6.284;2023-03-23T06:31:42;98113.34;;;7.10;97.23
42633;BME280;28261;53.304;-6.284;2023-03-23T06:33:47;98106.13;;;7.12;97.42
42633;BME280;28261;53.304;-6.284;2023-03-23T06:36:15;98106.13;;;7.12;97.23
42633;BME280;28261;53.304;-6.284;2023-03-23T06:38:36;98109.59;;;7.13;97.23
42633;BME280;28261;53.304;-6.284;2023-03-23T06:40:39;98114.72;;;7.14;97.15
42633;BME280;28261;53.304;-6.284;2023-03-23T06:42:42;98115.53;;;7.15;97.27
42633;BME280;28261;53.304;-6.284;2023-03-23T06:45:11;98128.56;;;7.16;96.68
42633;BME280;28261;53.304;-6.284;2023-03-23T06:47:14;98134.38;;;7.20;96.56
42633;BME280;28261;53.304;-6.284;2023-03-23T06:49:23;98119.94;;;7.24;95.83
42633;BME280;28261;53.304;-6.284;2023-03-23T06:51:37;98126.44;;;7.29;95.71
42633;BME280;28261;53.304;-6.284;2023-03-23T06:53:39;98124.03;;;7.36;94.89
42633;BME280;28261;53.304;-6.284;2023-03-23T06:55:46;98120.97;;;7.41;94.73
42633;BME280;28261;53.304;-6.284;2023-03-23T06:57:49;98132.03;;;7.44;94.25
42633;BME280;28261;53.304;-6.284;2023-03-23T06:59:51;98131.72;;;7.48;94.02
42633;BME280;28261;53.304;-6.284;2023-03-23T07:01:56;98134.25;;;7.49;93.28
42633;BME280;28261;53.304;-6.284;2023-03-23T07:03:59;98138.38;;;7.52;93.55
42633;BME280;28261;53.304;-6.284;2023-03-23T07:06:13;98140.03;;;7.53;93.48
42633;BME280;28261;53.304;-6.284;2023-03-23T07:08:23;98135.47;;;7.55;93.64
42633;BME280;28261;53.304;-6.284;2023-03-23T07:10:26;98147.53;;;7.57;93.39
42633;BME280;28261;53.304;-6.284;2023-03-23T07:12:28;98142.09;;;7.59;93.54
42633;BME280;28261;53.304;-6.284;2023-03-23T07:14:31;98144.28;;;7.63;93.19
42633;BME280;28261;53.304;-6.284;2023-03-23T07:16:33;98147.16;;;7.70;93.70
42633;BME280;28261;53.304;-6.284;2023-03-23T07:18:36;98148.38;;;7.76;93.22
42633;BME280;28261;53.304;-6.284;2023-03-23T07:20:40;98145.31;;;7.81;93.10
42633;BME280;28261;53.304;-6.284;2023-03-23T07:22:44;98158.03;;;7.85;92.80
42633;BME280;28261;53.304;-6.284;2023-03-23T07:24:58;98149.81;;;7.88;92.91
42633;BME280;28261;53.304;-6.284;2023-03-23T07:27:06;98165.38;;;7.91;93.59
42633;BME280;28261;53.304;-6.284;2023-03-23T07:29:12;98157.00;;;7.96;93.22
42633;BME280;28261;53.304;-6.284;2023-03-23T07:31:21;98154.75;;;8.01;93.63
42633;BME280;28261;53.304;-6.284;2023-03-23T07:33:24;98158.75;;;8.05;92.96
42633;BME280;28261;53.304;-6.284;2023-03-23T07:35:30;98162.75;;;8.09;93.46
42633;BME280;28261;53.304;-6.284;2023-03-23T07:37:37;98165.72;;;8.14;93.10
42633;BME280;28261;53.304;-6.284;2023-03-23T07:39:41;98169.72;;;8.19;93.03
42633;BME280;28261;53.304;-6.284;2023-03-23T07:41:44;98175.69;;;8.21;92.76
42633;BME280;28261;53.304;-6.284;2023-03-23T07:43:56;98171.09;;;8.23;92.72
42633;BME280;28261;53.304;-6.284;2023-03-23T07:46:08;98165.97;;;8.21;92.61
42633;BME280;28261;53.304;-6.284;2023-03-23T07:48:37;98164.00;;;8.23;92.49
42633;BME280;28261;53.304;-6.284;2023-03-23T07:50:40;98168.16;;;8.26;92.65
42633;BME280;28261;53.304;-6.284;2023-03-23T07:52:45;98175.13;;;8.27;92.53
42633;BME280;28261;53.304;-6.284;2023-03-23T07:54:53;98167.69;;;8.30;92.70
42633;BME280;28261;53.304;-6.284;2023-03-23T07:57:22;98175.84;;;8.37;92.07
42633;BME280;28261;53.304;-6.284;2023-03-23T07:59:27;98170.94;;;8.42;91.59
42633;BME280;28261;53.304;-6.284;2023-03-23T08:01:33;98172.19;;;8.48;92.27
42633;BME280;28261;53.304;-6.284;2023-03-23T08:03:54;98171.56;;;8.54;91.51
42633;BME280;28261;53.304;-6.284;2023-03-23T08:06:18;98182.34;;;8.61;91.23
42633;BME280;28261;53.304;-6.284;2023-03-23T08:08:36;98175.31;;;8.70;90.72
42633;BME280;28261;53.304;-6.284;2023-03-23T08:10:42;98167.78;;;8.75;90.38
42633;BME280;28261;53.304;-6.284;2023-03-23T08:12:58;98183.81;;;8.81;90.50
42633;BME280;28261;53.304;-6.284;2023-03-23T08:15:05;98171.81;;;8.87;90.07
42633;BME280;28261;53.304;-6.284;2023-03-23T08:17:35;98175.94;;;8.90;89.88
42633;BME280;28261;53.304;-6.284;2023-03-23T08:19:53;98185.84;;;8.88;88.59
42633;BME280;28261;53.304;-6.284;2023-03-23T08:22:19;98175.81;;;8.91;89.19
42633;BME280;28261;53.304;-6.284;2023-03-23T08:24:53;98191.72;;;9.00;88.63
42633;BME280;28261;53.304;-6.284;2023-03-23T08:27:23;98172.41;;;9.07;87.91
42633;BME280;28261;53.304;-6.284;2023-03-23T08:29:44;98177.75;;;9.15;86.80
42633;BME280;28261;53.304;-6.284;2023-03-23T08:32:00;98172.00;;;9.20;86.34
42633;BME280;28261;53.304;-6.284;2023-03-23T08:34:07;98178.84;;;9.31;85.47
42633;BME280;28261;53.304;-6.284;2023-03-23T08:36:34;98169.47;;;9.45;85.40
42633;BME280;28261;53.304;-6.284;2023-03-23T08:38:50;98161.09;;;9.58;85.00
42633;BME280;28261;53.304;-6.284;2023-03-23T08:41:14;98156.69;;;9.67;84.59
42633;BME280;28261;53.304;-6.284;2023-03-23T08:43:25;98154.34;;;9.72;84.66
42633;BME280;28261;53.304;-6.284;2023-03-23T08:45:47;98163.16;;;9.80;84.25
42633;BME280;28261;53.304;-6.284;2023-03-23T08:48:08;98155.25;;;9.89;83.87
42633;BME280;28261;53.304;-6.284;2023-03-23T08:50:50;98149.94;;;9.89;83.71
42633;BME280;28261;53.304;-6.284;2023-03-23T08:53:02;98147.28;;;9.80;83.39
42633;BME280;28261;53.304;-6.284;2023-03-23T08:55:22;98160.84;;;9.77;83.57
42633;BME280;28261;53.304;-6.284;2023-03-23T08:57:54;98165.81;;;9.89;83.32
42633;BME280;28261;53.304;-6.284;2023-03-23T09:00:27;98174.78;;;10.04;83.03
42633;BME280;28261;53.304;-6.284;2023-03-23T09:02:53;98169.34;;;10.22;81.83
42633;BME280;28261;53.304;-6.284;2023-03-23T09:05:04;98178.34;;;10.38;80.69
42633;BME280;28261;53.304;-6.284;2023-03-23T09:07:18;98181.31;;;10.51;80.36
42633;BME280;28261;53.304;-6.284;2023-03-23T09:09:21;98166.25;;;10.68;79.80
42633;BME280;28261;53.304;-6.284;2023-03-23T09:11:24;98168.38;;;10.81;78.96
42633;BME280;28261;53.304;-6.284;2023-03-23T09:13:27;98177.81;;;10.92;78.55
42633;BME280;28261;53.304;-6.284;2023-03-23T09:15:31;98178.63;;;11.09;78.62
42633;BME280;28261;53.304;-6.284;2023-03-23T09:17:34;98175.13;;;11.16;77.48
42633;BME280;28261;53.304;-6.284;2023-03-23T09:19:37;98197.50;;;11.22;77.94
42633;BME280;28261;53.304;-6.284;2023-03-23T09:21:39;98173.75;;;11.29;76.65
42633;BME280;28261;53.304;-6.284;2023-03-23T09:23:42;98183.56;;;11.28;76.13
42633;BME280;28261;53.304;-6.284;2023-03-23T09:25:46;98187.38;;;11.26;76.02
42633;BME280;28261;53.304;-6.284;2023-03-23T09:27:51;98182.72;;;11.28;75.89
42633;BME280;28261;53.304;-6.284;2023-03-23T09:29:57;98185.38;;;11.36;75.96
42633;BME280;28261;53.304;-6.284;2023-03-23T09:32:03;98204.38;;;11.48;75.16
42633;BME280;28261;53.304;-6.284;2023-03-23T09:34:06;98182.69;;;11.44;74.35
42633;BME280;28261;53.304;-6.284;2023-03-23T09:36:10;98182.03;;;11.34;74.78
42633;BME280;28261;53.304;-6.284;2023-03-23T09:38:15;98174.44;;;11.23;75.39
42633;BME280;28261;53.304;-6.284;2023-03-23T09:40:19;98176.72;;;11.34;76.20
42633;BME280;28261;53.304;-6.284;2023-03-23T09:42:37;98169.56;;;11.51;75.37
42633;BME280;28261;53.304;-6.284;2023-03-23T09:44:53;98183.94;;;11.65;73.51
42633;BME280;28261;53.304;-6.284;2023-03-23T09:47:05;98182.91;;;11.74;73.27
42633;BME280;28261;53.304;-6.284;2023-03-23T09:49:11;98170.91;;;11.87;73.25
42633;BME280;28261;53.304;-6.284;2023-03-23T09:51:22;98168.34;;;12.01;71.53
42633;BME280;28261;53.304;-6.284;2023-03-23T09:53:32;98187.34;;;12.13;70.87
42633;BME280;28261;53.304;-6.284;2023-03-23T09:55:36;98168.25;;;12.18;69.93
42633;BME280;28261;53.304;-6.284;2023-03-23T09:57:44;98177.69;;;12.21;69.36
42633;BME280;28261;53.304;-6.284;2023-03-23T09:59:54;98185.31;;;12.24;69.16
42633;BME280;28261;53.304;-6.284;2023-03-23T10:02:09;98182.06;;;12.36;69.36
42633;BME280;28261;53.304;-6.284;2023-03-23T10:04:28;98181.81;;;12.46;68.62
42633;BME280;28261;53.304;-6.284;2023-03-23T10:06:32;98179.28;;;12.53;68.07
42633;BME280;28261;53.304;-6.284;2023-03-23T10:08:35;98183.41;;;12.56;67.47
42633;BME280;28261;53.304;-6.284;2023-03-23T10:10:50;98160.78;;;12.60;66.48
42633;BME280;28261;53.304;-6.284;2023-03-23T10:13:01;98181.78;;;12.69;66.84
42633;BME280;28261;53.304;-6.284;2023-03-23T10:15:15;98191.72;;;12.76;66.70
42633;BME280;28261;53.304;-6.284;2023-03-23T10:17:25;98167.97;;;12.74;66.27
42633;BME280;28261;53.304;-6.284;2023-03-23T10:19:34;98177.44;;;12.77;66.14
42633;BME280;28261;53.304;-6.284;2023-03-23T10:21:41;98188.16;;;12.83;65.45
42633;BME280;28261;53.304;-6.284;2023-03-23T10:23:52;98191.09;;;12.89;65.81
42633;BME280;28261;53.304;-6.284;2023-03-23T10:26:00;98182.69;;;13.00;65.28
42633;BME280;28261;53.304;-6.284;2023-03-23T10:28:09;98196.84;;;13.15;65.74
42633;BME280;28261;53.304;-6.284;2023-03-23T10:30:17;98187.97;;;13.23;64.17
42633;BME280;28261;53.304;-6.284;2023-03-23T10:32:39;98179.97;;;13.38;64.85
42633;BME280;28261;53.304;-6.284;2023-03-23T10:34:47;98196.31;;;13.50;64.84
42633;BME280;28261;53.304;-6.284;2023-03-23T10:36:59;98191.56;;;13.45;62.68
42633;BME280;28261;53.304;-6.284;2023-03-23T10:39:09;98196.59;;;13.40;63.40
42633;BME280;28261;53.304;-6.284;2023-03-23T10:41:16;98197.78;;;13.37;63.12
42633;BME280;28261;53.304;-6.284;2023-03-23T10:43:19;98202.22;;;13.45;63.72
42633;BME280;28261;53.304;-6.284;2023-03-23T10:45:24;98194.13;;;13.53;63.54
42633;BME280;28261;53.304;-6.284;2023-03-23T10:47:30;98190.53;;;13.61;63.03
42633;BME280;28261;53.304;-6.284;2023-03-23T10:49:37;98192.19;;;13.62;62.57
42633;BME280;28261;53.304;-6.284;2023-03-23T10:51:43;98196.97;;;13.67;62.82
42633;BME280;28261;53.304;-6.284;2023-03-23T10:53:50;98204.88;;;13.75;62.78
42633;BME280;28261;53.304;-6.284;2023-03-23T10:55:53;98195.13;;;13.82;62.82
42633;BME280;28261;53.304;-6.284;2023-03-23T10:58:01;98203.38;;;13.87;62.42
42633;BME280;28261;53.304;-6.284;2023-03-23T11:00:06;98202.34;;;13.88;61.98
42633;BME280;28261;53.304;-6.284;2023-03-23T11:02:15;98199.56;;;13.97;61.81
42633;BME280;28261;53.304;-6.284;2023-03-23T11:04:20;98203.28;;;13.96;62.36
42633;BME280;28261;53.304;-6.284;2023-03-23T11:06:26;98220.34;;;14.01;62.16
42633;BME280;28261;53.304;-6.284;2023-03-23T11:08:32;98208.72;;;14.09;61.68
42633;BME280;28261;53.304;-6.284;2023-03-23T11:10:38;98200.19;;;14.14;61.33
42633;BME280;28261;53.304;-6.284;2023-03-23T11:12:44;98202.00;;;14.13;61.44
42633;BME280;28261;53.304;-6.284;2023-03-23T11:14:48;98195.13;;;14.19;61.69
42633;BME280;28261;53.304;-6.284;2023-03-23T11:16:53;98199.94;;;14.30;60.90
42633;BME280;28261;53.304;-6.284;2023-03-23T11:18:57;98189.75;;;14.34;60.40
42633;BME280;28261;53.304;-6.284;2023-03-23T11:21:02;98197.47;;;14.29;60.24